createdAt,value
2019-05-02T00:00:16.100Z,24.20
2019-05-02T00:02:47.337Z,25.70
2019-05-02T00:05:18.253Z,24.83
2019-05-02T00:07:47.616Z,26.67
2019-05-02T00:10:19.975Z,25.47
2019-05-02T00:12:51.282Z,26.10
2019-05-02T00:15:21.485Z,25.90
2019-05-02T00:17:50.878Z,24.60
2019-05-02T00:20:21.105Z,25.17
2019-05-02T00:22:52.493Z,23.57
2019-05-02T00:25:22.784Z,25.10
2019-05-02T00:27:52.670Z,23.83
2019-05-02T00:30:22.511Z,24.18
2019-05-02T00:32:53.282Z,24.23
2019-05-02T00:35:23.254Z,24.57
2019-05-02T00:37:52.639Z,23.87
2019-05-02T00:40:25.615Z,24.53
2019-05-02T00:42:58.339Z,23.33
2019-05-02T00:45:25.938Z,24.50
2019-05-02T00:48:12.741Z,26.50
2019-05-02T00:50:45.273Z,25.80
2019-05-02T00:53:13.702Z,24.13
2019-05-02T00:55:45.040Z,24.22
2019-05-02T00:58:14.408Z,25.77
2019-05-02T01:01:02.421Z,25.23
2019-05-02T01:03:33.438Z,25.03
2019-05-02T01:06:04.137Z,24.80
2019-05-02T01:08:35.644Z,25.03
2019-05-02T01:11:04.580Z,24.63
2019-05-02T01:13:33.968Z,24.87
2019-05-02T01:16:03.417Z,26.10
2019-05-02T01:18:37.195Z,24.70
2019-05-02T01:21:04.235Z,24.27
2019-05-02T01:23:33.587Z,24.27
2019-05-02T01:26:02.964Z,23.37
2019-05-02T01:28:53.823Z,23.30
2019-05-02T01:31:36.993Z,26.20
2019-05-02T01:34:08.161Z,23.07
2019-05-02T01:36:41.219Z,24.00
2019-05-02T01:39:13.020Z,24.27
2019-05-02T01:41:42.563Z,23.77
2019-05-02T01:44:12.922Z,19.87
2019-05-02T01:46:42.644Z,22.93
2019-05-02T01:49:12.021Z,22.73
2019-05-02T01:51:47.082Z,23.87
2019-05-02T01:54:13.671Z,22.33
2019-05-02T01:56:43.089Z,21.80
2019-05-02T01:59:12.619Z,21.90
2019-05-02T02:01:41.977Z,23.07
2019-05-02T02:04:16.268Z,23.30
2019-05-02T02:06:45.125Z,23.67
2019-05-02T02:09:14.626Z,22.93
2019-05-02T02:11:44.949Z,22.62
2019-05-02T02:14:18.404Z,22.30
2019-05-02T02:16:46.389Z,22.70
2019-05-02T02:19:26.525Z,21.57
2019-05-02T02:22:02.752Z,22.13
2019-05-02T02:24:33.442Z,22.03
2019-05-02T02:27:02.964Z,21.90
2019-05-02T02:29:32.632Z,20.97
2019-05-02T02:32:02.333Z,23.00
2019-05-02T02:34:32.573Z,23.10
2019-05-02T02:37:09.706Z,23.23
2019-05-02T02:39:34.049Z,21.47
2019-05-02T02:42:03.787Z,22.10
2019-05-02T02:44:41.884Z,23.20
2019-05-02T02:47:18.286Z,22.00
2019-05-02T02:49:42.809Z,23.50
2019-05-02T02:52:12.197Z,23.40
2019-05-02T02:54:43.469Z,24.17
2019-05-02T02:57:20.855Z,23.80
2019-05-02T02:59:45.065Z,23.25
2019-05-02T03:02:14.770Z,23.12
2019-05-02T03:04:46.403Z,22.27
2019-05-02T03:07:24.138Z,23.50
2019-05-02T03:09:48.086Z,23.40
2019-05-02T03:12:22.283Z,23.43
2019-05-02T03:14:53.703Z,24.30
2019-05-02T03:17:26.595Z,23.17
2019-05-02T03:20:01.208Z,24.10
2019-05-02T03:22:25.932Z,23.27
2019-05-02T03:24:55.369Z,24.30
2019-05-02T03:27:29.989Z,24.77
2019-05-02T03:29:55.932Z,23.43
2019-05-02T03:32:33.378Z,23.07
2019-05-02T03:34:56.406Z,23.40
2019-05-02T03:37:25.934Z,24.03
2019-05-02T03:39:58.031Z,24.63
2019-05-02T03:42:26.837Z,21.90
2019-05-02T03:45:03.852Z,21.30
2019-05-02T03:47:27.941Z,23.20
2019-05-02T03:49:57.288Z,24.32
2019-05-02T03:52:26.898Z,24.33
2019-05-02T03:54:56.764Z,24.27
2019-05-02T03:57:33.564Z,23.63
2019-05-02T03:59:57.888Z,25.05
2019-05-02T04:02:27.638Z,25.17
2019-05-02T04:05:00.438Z,25.90
2019-05-02T04:07:39.337Z,22.83
2019-05-02T04:10:02.841Z,24.85
2019-05-02T04:12:33.372Z,25.30
2019-05-02T04:15:03.048Z,23.73
2019-05-02T04:17:35.357Z,24.30
2019-05-02T04:20:09.620Z,23.70
2019-05-02T04:22:42.786Z,22.87
2019-05-02T04:25:08.034Z,24.53
2019-05-02T04:27:37.427Z,19.93
2019-05-02T04:30:11.228Z,24.93
2019-05-02T04:32:42.748Z,24.60
2019-05-02T04:35:09.794Z,22.80
2019-05-02T04:37:41.286Z,24.43
2019-05-02T04:40:12.329Z,22.10
2019-05-02T04:42:41.418Z,21.47
2019-05-02T04:45:21.691Z,24.77
2019-05-02T04:47:42.724Z,25.40
2019-05-02T04:50:18.323Z,25.03
2019-05-02T04:52:48.381Z,23.97
2019-05-02T04:55:22.973Z,25.00
2019-05-02T04:57:50.687Z,23.87
2019-05-02T05:00:21.152Z,25.37
2019-05-02T05:02:53.079Z,25.30
2019-05-02T05:05:25.682Z,26.50
2019-05-02T05:07:53.227Z,22.82
2019-05-02T05:10:22.899Z,22.05
2019-05-02T05:12:52.307Z,25.00
2019-05-02T05:15:35.914Z,23.52
2019-05-02T05:17:53.288Z,26.87
2019-05-02T05:20:23.005Z,25.23
2019-05-02T05:22:52.679Z,26.70
2019-05-02T05:25:37.706Z,22.90
2019-05-02T05:28:09.111Z,24.50
2019-05-02T05:30:45.163Z,25.17
2019-05-02T05:33:10.254Z,22.97
2019-05-02T05:35:43.276Z,26.00
2019-05-02T05:38:11.460Z,28.20
2019-05-02T05:40:41.169Z,24.73
2019-05-02T05:43:14.376Z,25.83
2019-05-02T05:45:53.329Z,26.13
2019-05-02T05:48:13.898Z,24.73
2019-05-02T05:50:43.397Z,19.70
2019-05-02T05:53:17.107Z,27.80
2019-05-02T05:55:47.235Z,29.60
2019-05-02T05:58:18.722Z,24.63
2019-05-02T06:00:53.746Z,28.00
2019-05-02T06:03:18.917Z,29.03
2019-05-02T06:05:48.504Z,30.27
2019-05-02T06:08:19.795Z,29.70
2019-05-02T06:10:50.730Z,28.73
2019-05-02T06:13:20.211Z,28.87
2019-05-02T06:16:01.636Z,28.83
2019-05-02T06:18:20.675Z,27.30
2019-05-02T06:20:50.394Z,28.83
2019-05-02T06:23:20.078Z,27.00
2019-05-02T06:25:49.485Z,26.50
2019-05-02T06:28:18.878Z,26.33
2019-05-02T06:30:48.574Z,26.07
2019-05-02T06:33:18.692Z,27.70
2019-05-02T06:35:51.891Z,25.57
2019-05-02T06:38:21.710Z,25.57
2019-05-02T06:40:50.865Z,27.23
2019-05-02T06:43:20.798Z,25.83
2019-05-02T06:45:51.555Z,27.60
2019-05-02T06:48:21.235Z,26.55
2019-05-02T06:50:50.903Z,19.67
2019-05-02T06:53:20.363Z,20.10
2019-05-02T06:55:49.730Z,22.65
2019-05-02T06:58:19.384Z,26.30
2019-05-02T07:00:57.392Z,25.70
2019-05-02T07:03:20.376Z,25.07
2019-05-02T07:05:49.746Z,25.63
2019-05-02T07:08:19.583Z,25.77
2019-05-02T07:10:49.521Z,19.48
2019-05-02T07:13:19.178Z,25.73
2019-05-02T07:15:50.246Z,25.03
2019-05-02T07:18:21.577Z,20.77
2019-05-02T07:20:51.271Z,26.12
2019-05-02T07:23:20.643Z,24.33
2019-05-02T07:25:50.323Z,24.67
2019-05-02T07:28:19.704Z,25.90
2019-05-02T07:30:49.374Z,21.48
2019-05-02T07:33:18.767Z,21.10
2019-05-02T07:35:48.510Z,25.60
2019-05-02T07:38:20.249Z,26.90
2019-05-02T07:40:52.994Z,20.30
2019-05-02T07:43:22.181Z,24.37
2019-05-02T07:45:52.871Z,27.00
2019-05-02T07:48:22.382Z,21.77
2019-05-02T07:50:52.378Z,20.00
2019-05-02T07:53:22.463Z,22.33
2019-05-02T07:55:51.856Z,23.40
2019-05-02T07:58:21.544Z,22.75
2019-05-02T08:00:50.945Z,19.57
2019-05-02T08:03:20.482Z,23.57
2019-05-02T08:05:54.444Z,21.87
2019-05-02T08:08:24.968Z,21.12
2019-05-02T08:10:53.846Z,26.30
2019-05-02T08:13:23.684Z,24.97
2019-05-02T08:15:53.635Z,26.02
2019-05-02T08:18:25.255Z,22.15
2019-05-02T08:20:56.116Z,19.03
2019-05-02T08:23:27.727Z,21.10
2019-05-02T08:25:56.846Z,25.40
2019-05-02T08:28:31.066Z,20.35
2019-05-02T08:31:01.891Z,23.60
2019-05-02T08:33:34.805Z,23.10
2019-05-02T08:36:03.038Z,25.00
2019-05-02T08:38:32.571Z,23.30
2019-05-02T08:41:01.965Z,25.20
2019-05-02T08:43:31.675Z,23.07
2019-05-02T08:46:01.338Z,23.87
2019-05-02T08:48:30.739Z,25.20
2019-05-02T08:51:00.206Z,25.20
2019-05-02T08:53:29.587Z,24.53
2019-05-02T08:55:59.274Z,21.83
2019-05-02T08:58:28.727Z,18.53
2019-05-02T09:00:58.128Z,24.40
2019-05-02T09:03:27.535Z,25.60
2019-05-02T09:06:05.488Z,24.97
2019-05-02T09:08:28.763Z,22.65
2019-05-02T09:10:58.750Z,24.05
2019-05-02T09:13:29.517Z,26.30
2019-05-02T09:15:59.088Z,25.20
2019-05-02T09:18:35.129Z,27.17
2019-05-02T09:21:02.003Z,24.67
2019-05-02T09:23:35.377Z,22.83
2019-05-02T09:26:02.902Z,24.40
2019-05-02T09:28:32.566Z,22.13
2019-05-02T09:31:06.361Z,23.07
2019-05-02T09:33:36.775Z,19.80
2019-05-02T09:36:04.262Z,26.70
2019-05-02T09:38:33.713Z,28.00
2019-05-02T09:41:15.360Z,27.05
2019-05-02T09:43:39.026Z,27.70
2019-05-02T09:46:07.312Z,28.13
2019-05-02T09:48:36.664Z,20.37
2019-05-02T09:51:15.562Z,22.47
2019-05-02T09:53:37.142Z,20.33
2019-05-02T09:56:06.760Z,28.63
2019-05-02T09:58:36.123Z,25.80
2019-05-02T10:01:13.699Z,23.00
2019-05-02T10:03:43.326Z,29.20
2019-05-02T10:06:17.874Z,26.83
2019-05-02T10:08:46.595Z,27.83
2019-05-02T10:11:16.968Z,30.07
2019-05-02T10:13:46.205Z,22.90
2019-05-02T10:16:18.097Z,29.40
2019-05-02T10:18:46.931Z,29.00
2019-05-02T10:21:17.309Z,30.75
2019-05-02T10:23:51.733Z,29.50
2019-05-02T10:26:20.114Z,27.47
2019-05-02T10:28:53.399Z,30.10
2019-05-02T10:31:22.167Z,28.80
2019-05-02T10:33:52.934Z,28.25
2019-05-02T10:36:24.013Z,29.30
2019-05-02T10:38:59.032Z,28.30
2019-05-02T10:41:25.154Z,28.90
2019-05-02T10:43:57.660Z,29.80
2019-05-02T10:46:32.120Z,25.93
2019-05-02T10:49:01.991Z,24.60
2019-05-02T10:51:34.608Z,30.25
2019-05-02T10:54:05.221Z,24.30
2019-05-02T10:56:34.832Z,30.83
2019-05-02T10:59:04.352Z,23.50
2019-05-02T11:01:35.775Z,30.73
2019-05-02T11:04:06.869Z,29.80
2019-05-02T11:06:37.268Z,30.13
2019-05-02T11:09:09.324Z,24.57
2019-05-02T11:11:39.397Z,27.62
2019-05-02T11:14:11.976Z,29.63
2019-05-02T11:16:46.357Z,29.97
2019-05-02T11:19:17.649Z,28.53
2019-05-02T11:21:56.436Z,29.83
2019-05-02T11:24:18.716Z,30.35
2019-05-02T11:26:48.191Z,28.80
2019-05-02T11:29:17.886Z,27.30
2019-05-02T11:31:47.569Z,30.70
2019-05-02T11:34:16.975Z,30.27
2019-05-02T11:36:46.369Z,29.40
2019-05-02T11:39:24.735Z,28.30
2019-05-02T11:41:47.302Z,32.13
2019-05-02T11:44:16.888Z,31.60
2019-05-02T11:46:47.110Z,30.50
2019-05-02T11:49:16.551Z,30.37
2019-05-02T11:51:51.297Z,31.73
2019-05-02T11:54:18.463Z,31.60
2019-05-02T11:56:49.305Z,31.60
2019-05-02T11:59:22.585Z,31.07
2019-05-02T12:01:59.388Z,31.63
2019-05-02T12:04:24.097Z,32.00
2019-05-02T12:07:00.916Z,23.13
2019-05-02T12:09:24.932Z,31.30
2019-05-02T12:11:56.626Z,33.10
2019-05-02T12:14:27.474Z,31.73
2019-05-02T12:16:56.576Z,33.17
2019-05-02T12:19:26.083Z,31.97
2019-05-02T12:21:56.479Z,26.30
2019-05-02T12:24:26.300Z,32.97
2019-05-02T12:26:56.018Z,31.50
2019-05-02T12:29:25.391Z,30.43
2019-05-02T12:32:15.684Z,33.92
2019-05-02T12:34:46.320Z,31.37
2019-05-02T12:37:16.956Z,33.48
2019-05-02T12:39:46.618Z,35.03
2019-05-02T12:42:16.444Z,29.93
2019-05-02T12:44:46.469Z,34.37
2019-05-02T12:47:16.070Z,33.80
2019-05-02T12:49:46.350Z,32.35
2019-05-02T12:52:15.740Z,33.00
2019-05-02T12:54:46.541Z,37.08
2019-05-02T12:57:16.117Z,33.70
2019-05-02T12:59:46.461Z,35.98
2019-05-02T13:02:17.718Z,35.53
2019-05-02T13:04:47.391Z,32.93
2019-05-02T13:07:17.081Z,36.38
2019-05-02T13:09:46.583Z,35.43
2019-05-02T13:12:22.594Z,39.10
2019-05-02T13:14:52.955Z,38.55
2019-05-02T13:17:22.719Z,34.83
2019-05-02T13:19:56.880Z,35.98
2019-05-02T13:22:25.111Z,36.37
2019-05-02T13:24:56.457Z,41.70
2019-05-02T13:27:33.680Z,40.52
2019-05-02T13:29:58.893Z,35.70
2019-05-02T13:32:32.946Z,38.03
2019-05-02T13:35:04.167Z,38.02
2019-05-02T13:37:33.540Z,36.27
2019-05-02T13:40:05.343Z,39.20
2019-05-02T13:42:34.718Z,33.97
2019-05-02T13:45:17.059Z,27.87
2019-05-02T13:47:46.644Z,35.40
2019-05-02T13:50:16.454Z,35.80
2019-05-02T13:52:53.039Z,35.90
2019-05-02T13:55:19.499Z,35.67
2019-05-02T13:57:49.190Z,25.30
2019-05-02T14:00:23.145Z,38.87
2019-05-02T14:02:52.588Z,36.42
2019-05-02T14:05:22.356Z,24.17
2019-05-02T14:08:12.147Z,40.67
2019-05-02T14:10:43.230Z,40.67
2019-05-02T14:13:12.756Z,40.77
2019-05-02T14:15:42.291Z,39.00
2019-05-02T14:18:12.441Z,42.80
2019-05-02T14:20:42.756Z,41.20
2019-05-02T14:23:13.389Z,42.63
2019-05-02T14:25:42.771Z,40.30
2019-05-02T14:28:13.037Z,41.57
2019-05-02T14:30:46.111Z,40.13
2019-05-02T14:33:15.518Z,41.13
2019-05-02T14:35:46.270Z,37.83
2019-05-02T14:38:16.217Z,37.07
2019-05-02T14:40:55.019Z,37.55
2019-05-02T14:43:29.125Z,29.60
2019-05-02T14:45:58.685Z,34.70
2019-05-02T14:48:40.053Z,29.60
2019-05-02T14:51:01.849Z,26.77
2019-05-02T14:53:32.079Z,24.93
2019-05-02T14:56:06.162Z,24.90
2019-05-02T14:58:37.671Z,20.03
2019-05-02T15:01:05.546Z,24.30
2019-05-02T15:03:35.215Z,21.50
2019-05-02T15:06:06.986Z,19.43
2019-05-02T15:08:36.856Z,17.03
2019-05-02T15:11:07.336Z,14.80
2019-05-02T15:13:40.953Z,16.47
2019-05-02T15:16:12.343Z,15.43
2019-05-02T15:18:41.913Z,16.43
2019-05-02T15:21:16.364Z,17.10
2019-05-02T15:23:43.672Z,16.20
2019-05-02T15:26:14.124Z,18.85
2019-05-02T15:28:43.944Z,16.43
2019-05-02T15:31:18.940Z,17.60
2019-05-02T15:33:48.561Z,16.87
2019-05-02T15:36:18.257Z,17.50
2019-05-02T15:38:48.061Z,18.10
2019-05-02T15:41:17.579Z,20.05
2019-05-02T15:43:49.256Z,17.90
2019-05-02T15:46:23.672Z,16.60
2019-05-02T15:48:49.101Z,18.37
2019-05-02T15:51:18.902Z,18.13
2019-05-02T15:54:04.988Z,18.73
2019-05-02T15:56:24.455Z,17.67
2019-05-02T15:58:58.015Z,20.37
2019-05-02T16:01:36.656Z,19.23
2019-05-02T16:04:05.559Z,19.43
2019-05-02T16:06:34.945Z,17.10
2019-05-02T16:09:06.594Z,20.60
2019-05-02T16:11:37.871Z,20.53
2019-05-02T16:14:07.263Z,21.50
2019-05-02T16:16:43.549Z,19.20
2019-05-02T16:19:08.289Z,19.90
2019-05-02T16:21:48.542Z,17.77
2019-05-02T16:24:22.924Z,18.90
2019-05-02T16:26:56.409Z,19.73
2019-05-02T16:29:28.415Z,18.23
2019-05-02T16:31:59.729Z,19.45
2019-05-02T16:34:33.944Z,19.67
2019-05-02T16:37:16.632Z,19.13
2019-05-02T16:39:49.478Z,17.80
2019-05-02T16:42:15.035Z,18.83
2019-05-02T16:44:44.411Z,17.83
2019-05-02T16:47:14.557Z,19.13
2019-05-02T16:49:47.878Z,18.90
2019-05-02T16:52:16.166Z,18.73
2019-05-02T16:54:45.951Z,17.50
2019-05-02T16:57:17.515Z,20.90
2019-05-02T16:59:47.260Z,20.65
2019-05-02T17:02:17.017Z,19.13
2019-05-02T17:04:47.414Z,21.10
2019-05-02T17:07:18.599Z,21.47
2019-05-02T17:09:52.828Z,22.40
2019-05-02T17:12:22.271Z,19.27
2019-05-02T17:15:09.038Z,15.20
2019-05-02T17:17:38.423Z,21.40
2019-05-02T17:20:13.032Z,21.10
2019-05-02T17:22:41.462Z,18.80
2019-05-02T17:25:12.435Z,21.00
2019-05-02T17:27:44.424Z,19.20
2019-05-02T17:30:14.401Z,21.53
2019-05-02T17:32:44.342Z,17.40
2019-05-02T17:35:14.661Z,21.87
2019-05-02T17:37:48.561Z,24.20
2019-05-02T17:40:16.801Z,24.47
2019-05-02T17:42:47.496Z,23.30
2019-05-02T17:45:17.676Z,23.53
2019-05-02T17:47:48.321Z,23.57
2019-05-02T17:50:36.383Z,23.92
2019-05-02T17:53:07.964Z,24.00
2019-05-02T17:55:40.253Z,24.03
2019-05-02T17:58:12.340Z,20.80
2019-05-02T18:00:47.508Z,14.27
2019-05-02T18:03:15.502Z,13.20
2019-05-02T18:05:45.111Z,12.60
2019-05-02T18:08:14.915Z,13.87
2019-05-02T18:10:44.361Z,12.03
2019-05-02T18:13:13.747Z,12.67
2019-05-02T18:15:43.223Z,11.93
2019-05-02T18:18:12.699Z,11.90
2019-05-02T18:20:46.383Z,11.83
2019-05-02T18:23:13.354Z,11.33
2019-05-02T18:25:42.983Z,12.50
2019-05-02T18:28:15.880Z,11.30
2019-05-02T18:30:43.464Z,11.97
2019-05-02T18:33:13.226Z,11.43
2019-05-02T18:35:46.798Z,12.20
2019-05-02T18:38:15.923Z,12.10
2019-05-02T18:40:44.966Z,12.53
2019-05-02T18:43:14.362Z,13.30
2019-05-02T18:45:43.758Z,12.27
2019-05-02T18:48:13.248Z,13.23
2019-05-02T18:50:46.942Z,11.20
2019-05-02T18:53:18.713Z,11.80
2019-05-02T18:55:47.651Z,12.78
2019-05-02T18:58:17.280Z,11.57
2019-05-02T19:00:47.878Z,10.63
2019-05-02T19:03:17.462Z,10.20
2019-05-02T19:05:51.498Z,9.23
2019-05-02T19:08:30.674Z,10.73
2019-05-02T19:11:02.463Z,9.40
2019-05-02T19:13:22.349Z,10.58
2019-05-02T19:15:53.458Z,10.10
2019-05-02T19:18:22.907Z,9.90
2019-05-02T19:20:57.554Z,10.00
2019-05-02T19:23:27.151Z,10.50
2019-05-02T19:25:56.827Z,10.82
2019-05-02T19:28:29.083Z,9.20
2019-05-02T19:31:03.085Z,8.53
2019-05-02T19:33:31.959Z,8.10
2019-05-02T19:36:02.785Z,7.10
2019-05-02T19:38:34.787Z,6.87
2019-05-02T19:41:08.761Z,6.80
2019-05-02T19:43:40.490Z,6.47
2019-05-02T19:46:07.150Z,6.10
2019-05-02T19:48:37.403Z,5.00
2019-05-02T19:51:12.694Z,5.70
2019-05-02T19:53:40.198Z,5.90
2019-05-02T19:56:09.857Z,5.58
2019-05-02T19:58:42.716Z,4.97
2019-05-02T20:01:10.315Z,4.53
2019-05-02T20:03:40.045Z,4.57
2019-05-02T20:06:09.443Z,5.40
2019-05-02T20:08:38.967Z,5.63
2019-05-02T20:11:08.646Z,5.12
2019-05-02T20:13:38.313Z,5.77
2019-05-02T20:16:26.216Z,4.85
2019-05-02T20:18:55.916Z,4.57
2019-05-02T20:21:29.646Z,4.70
2019-05-02T20:24:01.424Z,5.50
2019-05-02T20:26:32.557Z,4.60
2019-05-02T20:29:02.297Z,4.67
2019-05-02T20:31:32.257Z,5.40
2019-05-02T20:34:04.785Z,5.20
2019-05-02T20:36:34.321Z,5.00
2019-05-02T20:39:06.968Z,5.10
2019-05-02T20:41:36.937Z,4.60
2019-05-02T20:44:06.288Z,4.50
2019-05-02T20:46:35.969Z,4.40
2019-05-02T20:49:05.399Z,4.23
2019-05-02T20:51:35.072Z,5.53
2019-05-02T20:54:04.675Z,4.67
2019-05-02T20:56:34.115Z,5.20
2019-05-02T20:59:03.567Z,4.60
2019-05-02T21:01:33.113Z,4.80
2019-05-02T21:04:02.878Z,4.80
2019-05-02T21:06:40.669Z,4.07
2019-05-02T21:09:10.859Z,3.70
2019-05-02T21:11:41.933Z,3.70
2019-05-02T21:14:12.303Z,3.80
2019-05-02T21:16:42.026Z,4.15
2019-05-02T21:19:12.392Z,4.00
2019-05-02T21:21:42.683Z,4.17
2019-05-02T21:24:12.451Z,4.30
2019-05-02T21:26:42.231Z,4.50
2019-05-02T21:29:15.064Z,5.85
2019-05-02T21:31:44.786Z,4.40
2019-05-02T21:34:14.219Z,4.10
2019-05-02T21:36:43.581Z,4.17
2019-05-02T21:39:13.599Z,5.47
2019-05-02T21:41:43.284Z,4.35
2019-05-02T21:44:13.291Z,4.17
2019-05-02T21:46:42.716Z,4.03
2019-05-02T21:49:13.923Z,3.60
2019-05-02T21:51:47.957Z,3.80
2019-05-02T21:54:18.981Z,3.77
2019-05-02T21:56:52.107Z,3.97
2019-05-02T21:59:22.481Z,3.70
2019-05-02T22:01:53.936Z,4.70
2019-05-02T22:04:23.366Z,4.13
2019-05-02T22:06:52.743Z,3.90
2019-05-02T22:09:23.069Z,4.13
2019-05-02T22:11:52.637Z,4.70
2019-05-02T22:14:23.327Z,4.20
2019-05-02T22:16:53.164Z,5.50
2019-05-02T22:19:22.570Z,4.30
2019-05-02T22:21:52.630Z,5.30
2019-05-02T22:24:22.216Z,5.17
2019-05-02T22:26:52.617Z,5.13
2019-05-02T22:29:22.397Z,5.23
2019-05-02T22:31:54.428Z,5.60
2019-05-02T22:34:23.116Z,6.10
2019-05-02T22:36:54.356Z,5.70
2019-05-02T22:39:31.783Z,6.07
2019-05-02T22:42:04.343Z,5.85
2019-05-02T22:44:32.662Z,6.07
2019-05-02T22:47:02.297Z,6.28
2019-05-02T22:49:31.979Z,7.20
2019-05-02T22:52:01.618Z,7.30
2019-05-02T22:54:33.776Z,6.75
2019-05-02T22:57:02.706Z,6.35
2019-05-02T22:59:32.380Z,6.45
2019-05-02T23:02:02.733Z,7.40
2019-05-02T23:04:32.700Z,6.33
2019-05-02T23:07:02.546Z,7.20
2019-05-02T23:09:31.847Z,6.83
2019-05-02T23:12:02.827Z,6.75
2019-05-02T23:14:32.699Z,6.80
2019-05-02T23:17:02.486Z,6.87
2019-05-02T23:19:31.930Z,7.17
2019-05-02T23:22:02.082Z,5.85
2019-05-02T23:24:39.115Z,6.13
2019-05-02T23:27:22.826Z,6.30
2019-05-02T23:29:52.477Z,6.90
2019-05-02T23:32:23.618Z,6.20
2019-05-02T23:34:53.419Z,6.57
2019-05-02T23:37:22.795Z,7.40
2019-05-02T23:39:52.472Z,6.33
2019-05-02T23:42:22.802Z,6.40
2019-05-02T23:44:52.476Z,6.17
2019-05-02T23:47:22.472Z,5.70
2019-05-02T23:49:52.160Z,6.03
2019-05-02T23:52:22.455Z,6.63
2019-05-02T23:54:52.532Z,5.37
2019-05-02T23:57:23.401Z,5.85
2019-05-02T23:59:52.751Z,6.73
